Time;durP1;ratioP1;P1;durP2;ratioP2;P2;SDS_P1;SDS_P2;PMS_P1;PMS_P2;Temp;Humidity;BMP_temperature;BMP_pressure;BME280_temperature;BME280_humidity;BME280_pressure;Samples;Min_cycle;Max_cycle;Signal;HPM_P1;HPM_P2
2021/09/11 00:00:15;;;;;;;3.58;1.80;;;;;;;25.82;50.65;101115.28;5032369;28;20139;-70
2021/09/11 00:02:46;;;;;;;3.20;1.80;;;;;;;25.84;50.42;101112.31;5045541;28;20517;-73
2021/09/11 00:05:15;;;;;;;3.17;2.10;;;;;;;25.80;50.79;101116.53;5044582;28;20521;-73
2021/09/11 00:07:42;;;;;;;2.53;1.73;;;;;;;25.80;50.33;101113.75;5042890;28;20044;-72
2021/09/11 00:10:10;;;;;;;3.15;1.75;;;;;;;25.81;50.92;101119.13;5044167;28;20128;-73
2021/09/11 00:12:38;;;;;;;3.40;2.10;;;;;;;25.80;50.36;101120.16;5042548;28;20136;-73
2021/09/11 00:15:10;;;;;;;2.45;1.70;;;;;;;25.80;50.62;101116.53;5043111;28;20136;-72
2021/09/11 00:17:37;;;;;;;2.83;1.80;;;;;;;25.76;50.25;101116.06;5043666;28;20075;-73
2021/09/11 00:20:05;;;;;;;3.60;2.00;;;;;;;25.76;50.31;101108.59;5046807;28;20088;-71
2021/09/11 00:22:32;;;;;;;2.78;1.88;;;;;;;25.75;50.68;101100.44;5047136;28;20087;-70
2021/09/11 00:24:58;;;;;;;3.55;2.10;;;;;;;25.74;50.39;101101.50;5041755;28;20140;-70
2021/09/11 00:27:25;;;;;;;3.50;2.20;;;;;;;25.73;50.23;101100.63;5044044;28;20045;-70
2021/09/11 00:29:52;;;;;;;2.85;1.90;;;;;;;25.71;50.23;101105.50;5048217;28;20125;-70
2021/09/11 00:32:18;;;;;;;2.90;1.92;;;;;;;25.71;50.04;101107.44;5046557;28;20041;-70
2021/09/11 00:34:45;;;;;;;3.03;2.05;;;;;;;25.69;50.18;101116.00;5044964;28;20080;-70
2021/09/11 00:37:11;;;;;;;3.38;2.00;;;;;;;25.68;50.20;101116.19;5047147;28;20055;-71
2021/09/11 00:39:38;;;;;;;3.65;1.92;;;;;;;25.67;50.25;101109.75;5044372;28;20081;-71
2021/09/11 00:42:05;;;;;;;3.53;2.00;;;;;;;25.66;50.10;101121.06;5046222;28;20136;-70
2021/09/11 00:44:31;;;;;;;3.08;2.00;;;;;;;25.64;50.28;101117.63;5037390;28;20075;-70
2021/09/11 00:46:58;;;;;;;2.80;1.95;;;;;;;25.63;50.17;101121.44;5045841;28;20139;-72
2021/09/11 00:49:24;;;;;;;3.08;2.03;;;;;;;25.61;50.58;101129.16;5044700;28;20069;-72
2021/09/11 00:51:51;;;;;;;3.45;2.10;;;;;;;25.59;50.28;101126.56;5028745;28;20053;-72
2021/09/11 00:54:18;;;;;;;3.03;2.05;;;;;;;25.58;50.27;101129.50;5044348;28;20542;-71
2021/09/11 00:56:44;;;;;;;3.67;2.42;;;;;;;25.57;50.06;101127.75;5045416;28;20041;-71
2021/09/11 00:59:11;;;;;;;2.60;1.80;;;;;;;25.54;50.42;101130.91;5040305;28;20132;-71
2021/09/11 01:01:37;;;;;;;3.13;2.05;;;;;;;25.54;50.68;101139.25;5046271;28;20049;-72
2021/09/11 01:04:04;;;;;;;4.25;2.13;;;;;;;25.52;50.54;101128.34;5044661;28;20079;-72
2021/09/11 01:06:32;;;;;;;3.05;1.95;;;;;;;25.51;50.54;101131.31;5045330;28;20102;-72
2021/09/11 01:09:00;;;;;;;3.83;2.25;;;;;;;25.51;50.36;101128.53;5028081;28;20528;-72
2021/09/11 01:11:27;;;;;;;3.70;2.20;;;;;;;25.48;50.44;101127.00;5045499;28;20306;-72
2021/09/11 01:13:56;;;;;;;4.10;2.50;;;;;;;25.49;50.27;101133.44;5026672;28;20132;-72
2021/09/11 01:16:22;;;;;;;4.68;2.17;;;;;;;25.47;50.31;101136.41;5027117;28;20045;-72
2021/09/11 01:18:49;;;;;;;4.50;2.30;;;;;;;25.47;50.25;101136.41;5035503;28;20057;-72
2021/09/11 01:21:15;;;;;;;3.20;1.98;;;;;;;25.45;50.25;101141.28;5045650;28;20412;-72
2021/09/11 01:23:42;;;;;;;3.88;2.28;;;;;;;25.45;50.34;101134.88;5043975;28;20045;-71
2021/09/11 01:26:13;;;;;;;3.53;2.40;;;;;;;25.48;50.11;101140.03;5027452;28;20310;-72
2021/09/11 01:28:40;;;;;;;3.45;2.35;;;;;;;25.43;50.13;101140.63;5036211;28;20548;-71
2021/09/11 01:31:06;;;;;;;3.53;2.47;;;;;;;25.42;49.75;101141.69;5046187;28;20087;-71
2021/09/11 01:33:33;;;;;;;4.18;2.58;;;;;;;25.39;49.91;101136.50;5026184;28;20239;-72
2021/09/11 01:35:59;;;;;;;4.75;2.58;;;;;;;25.37;49.70;101141.38;5046257;28;20075;-72
2021/09/11 01:38:26;;;;;;;4.30;2.38;;;;;;;25.34;50.14;101137.09;5026432;28;20045;-72
2021/09/11 01:40:52;;;;;;;4.82;2.70;;;;;;;25.32;49.73;101147.53;5042643;28;20562;-72
2021/09/11 01:43:30;;;;;;;4.20;2.65;;;;;;;25.33;49.98;101137.28;5027916;28;20072;-72
2021/09/11 01:45:57;;;;;;;4.72;3.03;;;;;;;25.28;49.67;101140.59;5045304;28;20481;-71
2021/09/11 01:48:25;;;;;;;3.40;2.60;;;;;;;25.26;49.83;101147.44;5020162;28;20059;-71
2021/09/11 01:50:51;;;;;;;4.55;3.10;;;;;;;25.23;49.83;101137.56;5045033;28;20045;-71
2021/09/11 01:53:18;;;;;;;5.75;3.28;;;;;;;25.23;50.27;101139.47;5035982;28;20056;-72
2021/09/11 01:55:44;;;;;;;5.13;2.85;;;;;;;25.21;50.51;101150.75;5044474;28;20045;-72
2021/09/11 01:58:11;;;;;;;5.00;3.42;;;;;;;25.19;50.30;101144.56;5027739;28;20090;-72
2021/09/11 02:00:39;;;;;;;5.97;3.50;;;;;;;25.19;50.43;101146.47;5052890;28;20156;-72
2021/09/11 02:03:06;;;;;;;4.70;3.40;;;;;;;25.20;50.67;101148.19;5044857;28;20045;-72
2021/09/11 02:05:33;;;;;;;5.28;3.75;;;;;;;25.19;50.43;101141.78;5027584;28;20052;-72
2021/09/11 02:08:00;;;;;;;6.38;3.88;;;;;;;25.21;50.27;101141.56;5044455;28;20056;-71
2021/09/11 02:10:26;;;;;;;5.90;3.78;;;;;;;25.20;50.40;101140.69;5045210;28;20450;-72
2021/09/11 02:12:53;;;;;;;5.50;4.00;;;;;;;25.21;50.94;101144.34;5044814;28;20084;-72
2021/09/11 02:15:20;;;;;;;6.25;4.18;;;;;;;25.22;50.47;101146.06;5045068;28;20151;-72
2021/09/11 02:17:46;;;;;;;6.10;4.35;;;;;;;25.22;50.69;101149.72;5043768;28;20051;-71
2021/09/11 02:20:13;;;;;;;6.15;4.32;;;;;;;25.24;50.62;101146.75;5037712;28;20167;-71
2021/09/11 02:22:40;;;;;;;6.18;4.10;;;;;;;25.24;50.56;101153.19;5040781;28;20136;-72
2021/09/11 02:25:07;;;;;;;6.15;4.10;;;;;;;25.25;50.45;101148.47;5025316;28;20112;-72
2021/09/11 02:27:33;;;;;;;5.40;3.85;;;;;;;25.26;50.85;101144.66;5047530;28;20477;-72
2021/09/11 02:30:00;;;;;;;6.43;4.20;;;;;;;25.26;50.63;101153.00;5036577;28;20056;-72
2021/09/11 02:32:27;;;;;;;6.85;4.57;;;;;;;25.27;50.53;101154.72;5048771;28;20497;-72
2021/09/11 02:34:53;;;;;;;7.05;4.20;;;;;;;25.26;50.35;101151.06;5039320;28;20096;-72
2021/09/11 02:37:19;;;;;;;6.63;4.60;;;;;;;25.27;50.62;101149.16;5047281;28;20049;-72
2021/09/11 02:39:46;;;;;;;7.05;4.45;;;;;;;25.26;50.66;101158.56;5048518;28;20384;-72
2021/09/11 02:42:13;;;;;;;7.53;4.97;;;;;;;25.26;50.47;101162.19;5031079;28;20056;-71
2021/09/11 02:44:39;;;;;;;6.20;4.35;;;;;;;25.26;50.25;101155.78;5047887;28;20049;-71
2021/09/11 02:47:06;;;;;;;8.77;4.78;;;;;;;25.25;50.63;101151.25;5040660;28;20221;-72
2021/09/11 02:49:32;;;;;;;7.18;5.10;;;;;;;25.24;50.53;101155.09;5046391;28;20049;-72
2021/09/11 02:51:59;;;;;;;6.93;4.93;;;;;;;25.22;50.38;101149.72;5044124;28;20132;-71
2021/09/11 02:54:25;;;;;;;8.43;5.07;;;;;;;25.22;50.56;101158.06;5023301;28;20510;-72
2021/09/11 02:56:52;;;;;;;7.28;4.95;;;;;;;25.21;50.65;101161.88;5046209;28;20132;-71
2021/09/11 02:59:18;;;;;;;7.65;5.43;;;;;;;25.21;50.34;101159.09;5039443;28;20052;-71
2021/09/11 03:01:45;;;;;;;7.15;5.25;;;;;;;25.22;50.86;101159.97;5048106;28;20040;-72
2021/09/11 03:04:12;;;;;;;7.80;5.97;;;;;;;25.22;50.26;101162.75;5047244;28;20057;-72
2021/09/11 03:06:38;;;;;;;9.07;5.95;;;;;;;25.21;50.71;101167.44;5047818;28;20056;-72
2021/09/11 03:09:05;;;;;;;8.80;6.30;;;;;;;25.20;50.53;101162.94;5046944;28;20044;-72
2021/09/11 03:11:31;;;;;;;8.50;5.35;;;;;;;25.18;50.28;101159.50;5048490;28;20574;-71
2021/09/11 03:13:58;;;;;;;8.32;6.00;;;;;;;25.18;50.12;101165.06;5029583;28;20051;-72
2021/09/11 03:16:24;;;;;;;8.63;6.85;;;;;;;25.15;50.46;101159.00;5047622;28;20128;-72
2021/09/11 03:18:51;;;;;;;9.38;6.75;;;;;;;25.14;50.38;101162.84;5046511;28;20524;-72
2021/09/11 03:21:17;;;;;;;9.35;7.03;;;;;;;25.11;49.81;101164.09;5030422;28;20128;-72
2021/09/11 03:23:44;;;;;;;8.55;6.82;;;;;;;25.09;50.43;101166.19;5047000;28;20053;-72
2021/09/11 03:26:10;;;;;;;9.93;6.72;;;;;;;25.07;50.35;101165.50;5046359;28;20053;-72
2021/09/11 03:28:37;;;;;;;10.35;6.78;;;;;;;25.06;50.18;101165.69;5047017;28;20053;-71
2021/09/11 03:31:03;;;;;;;10.90;7.32;;;;;;;25.06;50.50;101174.91;5047374;28;20489;-72
2021/09/11 03:33:30;;;;;;;8.48;6.18;;;;;;;25.04;50.26;101174.22;5029205;28;20060;-71
2021/09/11 03:35:56;;;;;;;9.23;6.57;;;;;;;25.02;50.17;101168.00;5046501;28;20049;-72
2021/09/11 03:38:23;;;;;;;9.25;6.75;;;;;;;25.00;50.51;101162.63;5045412;28;20239;-72
2021/09/11 03:40:49;;;;;;;9.07;6.07;;;;;;;24.99;50.35;101166.47;5022921;28;20147;-71
2021/09/11 03:43:16;;;;;;;8.57;6.28;;;;;;;24.97;50.33;101176.03;5046345;28;20425;-72
2021/09/11 03:45:42;;;;;;;10.93;7.03;;;;;;;24.95;49.87;101180.94;5046754;28;20222;-72
2021/09/11 03:48:09;;;;;;;9.90;6.45;;;;;;;24.94;50.20;101179.19;5028778;28;20053;-70
2021/09/11 03:50:35;;;;;;;9.43;6.70;;;;;;;24.91;49.76;101180.44;5047787;28;20128;-71
2021/09/11 03:53:02;;;;;;;7.90;5.75;;;;;;;24.90;50.13;101186.13;5033256;28;20136;-72
2021/09/11 03:55:28;;;;;;;7.72;5.68;;;;;;;24.87;49.79;101175.41;5046633;28;20055;-72
2021/09/11 03:57:55;;;;;;;8.57;6.03;;;;;;;24.87;50.06;101180.97;5027602;28;20049;-71
2021/09/11 04:00:21;;;;;;;7.50;5.80;;;;;;;24.85;49.85;101183.06;5062165;28;20078;-72
2021/09/11 04:02:48;;;;;;;7.00;5.13;;;;;;;24.82;49.69;101187.06;5046161;28;20720;-72
2021/09/11 04:05:15;;;;;;;7.63;5.30;;;;;;;24.80;49.78;101191.94;5047309;28;20053;-72
2021/09/11 04:07:42;;;;;;;8.38;5.10;;;;;;;24.78;49.90;101198.75;5045873;28;20140;-72
2021/09/11 04:10:09;;;;;;;7.57;4.95;;;;;;;24.76;49.55;101200.84;5047337;28;20136;-71
2021/09/11 04:12:35;;;;;;;6.90;4.43;;;;;;;24.72;49.62;101193.94;5027957;28;20103;-72
2021/09/11 04:15:02;;;;;;;6.75;4.63;;;;;;;24.70;49.57;101198.84;5047145;28;20060;-71
2021/09/11 04:17:29;;;;;;;6.55;4.38;;;;;;;24.64;49.34;101200.41;5045128;28;20049;-72
2021/09/11 04:19:55;;;;;;;5.63;4.00;;;;;;;24.61;49.41;101198.03;5029327;28;20081;-71
2021/09/11 04:22:22;;;;;;;6.30;4.13;;;;;;;24.57;49.11;101203.06;5045023;28;20068;-72
2021/09/11 04:24:48;;;;;;;6.38;4.20;;;;;;;24.54;50.03;101200.66;5041757;28;20136;-71
2021/09/11 04:27:15;;;;;;;7.63;4.40;;;;;;;24.52;49.87;101202.78;5045581;28;20102;-72
2021/09/11 04:29:41;;;;;;;6.47;3.90;;;;;;;24.49;49.54;101194.81;5049009;28;20573;-72
2021/09/11 04:32:08;;;;;;;5.63;3.65;;;;;;;24.47;50.01;101194.13;5057586;28;20140;-72
2021/09/11 04:34:34;;;;;;;6.68;3.65;;;;;;;24.46;49.59;101200.72;5045675;28;20064;-72
2021/09/11 04:37:01;;;;;;;6.07;3.78;;;;;;;24.46;49.43;101202.66;5045713;28;20129;-72
2021/09/11 04:39:27;;;;;;;4.85;3.22;;;;;;;24.45;50.02;101207.34;5045728;28;20131;-71
2021/09/11 04:41:54;;;;;;;4.70;3.38;;;;;;;24.43;49.74;101206.66;5041187;28;20140;-72
2021/09/11 04:44:20;;;;;;;5.40;3.35;;;;;;;24.45;50.05;101220.34;5042354;28;20131;-71
2021/09/11 04:46:47;;;;;;;5.53;3.63;;;;;;;24.45;49.98;101221.22;5044709;28;20071;-72
2021/09/11 04:49:14;;;;;;;6.70;3.45;;;;;;;24.46;50.28;101216.53;5045474;28;20551;-72
2021/09/11 04:51:40;;;;;;;5.88;3.50;;;;;;;24.47;49.74;101215.47;5046127;28;20051;-72
2021/09/11 04:54:06;;;;;;;5.78;3.60;;;;;;;24.47;50.27;101215.47;5036393;28;20049;-72
2021/09/11 04:56:33;;;;;;;4.75;3.13;;;;;;;24.47;49.83;101216.31;5044680;28;20055;-71
2021/09/11 04:58:59;;;;;;;5.97;3.33;;;;;;;24.49;49.51;101213.38;5051066;28;20063;-71
2021/09/11 05:01:26;;;;;;;5.40;3.45;;;;;;;24.48;49.43;101217.19;5048360;28;20128;-71
2021/09/11 05:03:53;;;;;;;5.70;3.00;;;;;;;24.46;49.81;101213.75;5026428;28;20055;-71
2021/09/11 05:06:20;;;;;;;4.80;3.05;;;;;;;24.45;49.18;101224.00;5044842;28;20119;-71
2021/09/11 05:08:46;;;;;;;5.00;3.10;;;;;;;24.44;49.29;101227.81;5043446;28;20700;-72
2021/09/11 05:11:13;;;;;;;4.55;2.83;;;;;;;24.43;49.17;101228.00;5045494;28;20048;-71
2021/09/11 05:13:39;;;;;;;4.47;2.65;;;;;;;24.42;48.67;101231.81;5044843;28;20045;-72
2021/09/11 05:16:06;;;;;;;4.15;2.83;;;;;;;24.39;49.20;101232.16;5045844;28;20603;-71
2021/09/11 05:18:32;;;;;;;4.10;2.58;;;;;;;24.37;49.25;101234.28;5044523;28;20521;-71
2021/09/11 05:21:04;;;;;;;4.10;2.75;;;;;;;24.40;48.71;101229.22;5028457;28;20053;-71
2021/09/11 05:23:31;;;;;;;4.40;2.73;;;;;;;24.34;49.38;101234.66;5025809;28;20140;-71
2021/09/11 05:26:02;;;;;;;6.20;2.97;;;;;;;24.37;49.28;101240.72;5045645;28;20660;-70
2021/09/11 05:28:29;;;;;;;5.90;2.90;;;;;;;24.33;48.93;101241.25;5036833;28;20072;-72
2021/09/11 05:30:55;;;;;;;5.03;2.35;;;;;;;24.35;49.04;101247.47;5045680;28;20128;-72
2021/09/11 05:33:22;;;;;;;3.90;2.40;;;;;;;24.35;49.69;101247.47;5045115;28;20051;-71
2021/09/11 05:35:49;;;;;;;5.03;2.67;;;;;;;24.34;49.50;101251.28;5045597;28;20055;-71
2021/09/11 05:38:16;;;;;;;4.50;2.80;;;;;;;24.34;49.39;101254.94;5043335;28;20550;-71
2021/09/11 05:40:42;;;;;;;5.03;2.97;;;;;;;24.34;49.42;101249.38;5045878;28;20041;-71
2021/09/11 05:43:09;;;;;;;4.38;2.67;;;;;;;24.35;49.41;101262.22;5044518;28;20490;-70
2021/09/11 05:45:35;;;;;;;5.30;3.00;;;;;;;24.35;49.44;101253.03;5045734;28;20049;-71
2021/09/11 05:48:02;;;;;;;5.53;2.75;;;;;;;24.35;49.48;101265.00;5044360;28;20049;-71
2021/09/11 05:50:28;;;;;;;4.80;2.75;;;;;;;24.35;49.50;101262.22;5045768;28;20128;-71
2021/09/11 05:52:55;;;;;;;4.55;2.72;;;;;;;24.36;49.56;101263.09;5025043;28;20092;-71
2021/09/11 05:55:22;;;;;;;5.22;2.65;;;;;;;24.36;49.91;101258.41;5045514;28;20465;-71
2021/09/11 05:57:48;;;;;;;4.75;2.35;;;;;;;24.38;50.09;101263.78;5048524;28;20404;-71
2021/09/11 06:00:15;;;;;;;4.55;2.85;;;;;;;24.38;49.91;101269.34;5061030;28;20131;-70
2021/09/11 06:02:42;;;;;;;5.82;2.90;;;;;;;24.39;49.72;101262.69;5027027;28;20138;-71
2021/09/11 06:05:09;;;;;;;5.55;3.15;;;;;;;24.41;49.19;101269.81;5048399;28;20053;-72
2021/09/11 06:07:37;;;;;;;4.18;2.70;;;;;;;24.41;49.81;101263.41;5048353;28;20059;-71
2021/09/11 06:10:04;;;;;;;5.63;2.80;;;;;;;24.43;49.48;101270.50;5048927;28;20124;-71
2021/09/11 06:12:31;;;;;;;4.45;2.65;;;;;;;24.42;49.55;101266.00;5045239;28;20131;-71
2021/09/11 06:14:57;;;;;;;5.53;2.67;;;;;;;24.43;49.74;101266.84;5049035;28;20049;-71
2021/09/11 06:17:24;;;;;;;5.15;2.63;;;;;;;24.43;49.38;101269.63;5048022;28;20529;-71
2021/09/11 06:19:50;;;;;;;5.05;2.50;;;;;;;24.44;49.74;101263.03;5044684;28;20417;-71
2021/09/11 06:22:17;;;;;;;5.63;2.40;;;;;;;24.44;49.50;101272.22;5048473;28;20136;-71
2021/09/11 06:24:43;;;;;;;4.13;2.40;;;;;;;24.45;49.49;101273.09;5029258;28;20136;-71
2021/09/11 06:27:10;;;;;;;3.97;2.22;;;;;;;24.45;49.69;101271.19;5039753;28;20132;-71
2021/09/11 06:29:36;;;;;;;4.53;2.55;;;;;;;24.45;49.61;101271.19;5046200;28;20281;-70
2021/09/11 06:32:03;;;;;;;4.15;2.25;;;;;;;24.46;49.48;101274.84;5027412;28;20057;-71
2021/09/11 06:34:30;;;;;;;3.45;1.98;;;;;;;24.46;49.58;101270.13;5028991;28;20575;-72
2021/09/11 06:36:56;;;;;;;3.88;2.17;;;;;;;24.46;49.23;101270.13;5039522;28;20080;-71
2021/09/11 06:39:23;;;;;;;4.45;2.00;;;;;;;24.47;48.89;101276.53;5029169;28;20545;-71
2021/09/11 06:41:49;;;;;;;3.88;2.00;;;;;;;24.47;49.42;101273.75;5047778;28;20131;-71
2021/09/11 06:44:16;;;;;;;3.65;2.30;;;;;;;24.47;49.22;101274.63;5029418;28;20045;-71
2021/09/11 06:49:11;;;;;;;3.55;2.00;;;;;;;24.49;48.84;101285.56;5003228;28;20060;-70
2021/09/11 06:51:37;;;;;;;4.93;1.83;;;;;;;24.48;48.30;101287.47;5005327;28;20056;-70
2021/09/11 06:54:04;;;;;;;3.13;1.77;;;;;;;24.48;49.10;101286.59;5006879;28;20054;-70
2021/09/11 06:56:30;;;;;;;3.38;1.98;;;;;;;24.48;48.50;101283.81;5003924;28;20145;-70
2021/09/11 06:58:57;;;;;;;3.92;1.92;;;;;;;24.47;48.58;101290.41;5006059;28;20132;-70
2021/09/11 07:01:23;;;;;;;2.50;1.60;;;;;;;24.46;48.77;101295.09;5005327;28;20046;-70
2021/09/11 07:03:50;;;;;;;3.80;2.10;;;;;;;24.45;48.63;101292.53;5004926;28;20057;-70
2021/09/11 07:06:17;;;;;;;2.88;1.73;;;;;;;24.44;49.17;101294.44;5002571;28;20509;-70
2021/09/11 07:08:43;;;;;;;4.47;2.10;;;;;;;24.45;48.56;101301.72;5005673;28;20078;-71
2021/09/11 07:11:12;;;;;;;3.30;1.77;;;;;;;24.47;48.96;101302.38;5007170;28;20053;-70
2021/09/11 07:13:39;;;;;;;4.40;1.75;;;;;;;24.46;48.85;101289.53;5006944;28;20474;-71
2021/09/11 07:16:06;;;;;;;4.43;1.92;;;;;;;24.48;48.78;101294.91;5006972;28;20861;-70
2021/09/11 07:18:34;;;;;;;2.88;1.67;;;;;;;24.48;48.49;101294.91;5003846;28;20133;-70
2021/09/11 07:21:01;;;;;;;3.45;1.92;;;;;;;24.48;48.44;101300.47;5001362;28;20144;-70
2021/09/11 07:23:28;;;;;;;3.20;1.90;;;;;;;24.48;48.58;101292.16;5001311;28;20140;-70
2021/09/11 07:25:54;;;;;;;3.00;1.67;;;;;;;24.49;48.48;101291.09;5000994;28;20074;-70
2021/09/11 07:28:21;;;;;;;2.60;1.55;;;;;;;24.49;48.80;101296.66;4991624;28;20149;-70
2021/09/11 07:30:47;;;;;;;2.90;1.70;;;;;;;24.50;48.77;101295.63;5006253;28;20129;-70
2021/09/11 07:33:14;;;;;;;4.13;1.80;;;;;;;24.51;48.89;101308.44;5006509;28;20057;-70
2021/09/11 07:35:41;;;;;;;4.20;1.80;;;;;;;24.52;48.25;101301.84;5004764;28;20602;-70
2021/09/11 07:38:08;;;;;;;4.10;1.70;;;;;;;24.53;47.79;101309.13;5005298;28;20241;-70
2021/09/11 07:40:35;;;;;;;4.05;1.67;;;;;;;24.53;48.05;101310.00;5004715;28;20054;-70
2021/09/11 07:43:02;;;;;;;3.15;1.88;;;;;;;24.53;48.26;101314.69;5004929;28;20056;-70
2021/09/11 07:45:29;;;;;;;3.30;1.90;;;;;;;24.54;48.17;101314.47;5002968;28;20050;-70
2021/09/11 07:47:56;;;;;;;3.60;1.85;;;;;;;24.53;47.90;101307.22;5002812;28;20090;-70
2021/09/11 07:50:26;;;;;;;2.40;1.65;;;;;;;24.55;48.38;101312.56;5006789;28;20140;-70
2021/09/11 07:52:53;;;;;;;3.92;1.73;;;;;;;24.55;48.10;101319.00;5000756;28;20249;-70
2021/09/11 07:55:20;;;;;;;3.05;1.38;;;;;;;24.55;48.15;101316.22;5006835;28;20136;-70
2021/09/11 07:57:46;;;;;;;3.33;1.63;;;;;;;24.56;48.67;101322.63;5005748;28;20092;-70
2021/09/11 08:00:13;;;;;;;2.45;1.50;;;;;;;24.56;48.87;101315.19;5006825;28;20112;-70
2021/09/11 08:02:40;;;;;;;2.58;1.40;;;;;;;24.59;48.15;101313.97;5007016;28;20070;-70
2021/09/11 08:05:07;;;;;;;3.22;1.35;;;;;;;24.61;48.32;101322.97;5006754;28;20408;-70
2021/09/11 08:07:34;;;;;;;3.63;1.63;;;;;;;24.61;47.77;101309.97;5005856;28;20096;-70
2021/09/11 08:10:01;;;;;;;2.92;1.40;;;;;;;24.62;47.40;101316.38;5005137;28;20092;-70
2021/09/11 08:12:27;;;;;;;2.25;1.30;;;;;;;24.62;47.44;101316.38;5006270;28;20077;-70
2021/09/11 08:14:54;;;;;;;2.40;1.40;;;;;;;24.62;47.51;101324.72;5006271;28;20050;-70
2021/09/11 08:17:20;;;;;;;2.40;1.40;;;;;;;24.62;46.90;101320.00;5002468;28;20606;-70
2021/09/11 08:19:47;;;;;;;3.72;1.27;;;;;;;24.61;46.74;101311.88;5002070;28;20568;-70
2021/09/11 08:22:13;;;;;;;2.72;1.27;;;;;;;24.61;46.76;101315.50;5003893;28;20081;-70
2021/09/11 08:24:40;;;;;;;2.40;1.27;;;;;;;24.62;46.75;101321.94;5003743;28;20172;-70
2021/09/11 08:27:07;;;;;;;2.38;1.10;;;;;;;24.61;46.84;101321.06;5006005;28;20104;-70
2021/09/11 08:29:35;;;;;;;2.88;1.20;;;;;;;24.61;46.84;101323.84;4997943;28;20042;-70
2021/09/11 08:32:03;;;;;;;2.70;1.40;;;;;;;24.65;46.72;101330.75;5005466;28;20081;-70
2021/09/11 08:34:29;;;;;;;2.20;1.17;;;;;;;24.63;46.69;101327.28;5006050;28;20507;-69
2021/09/11 08:36:56;;;;;;;2.92;1.35;;;;;;;24.65;46.83;101329.88;5005735;28;20124;-69
2021/09/11 08:39:25;;;;;;;3.42;1.17;;;;;;;24.67;46.67;101336.13;5005546;28;20057;-69
2021/09/11 08:41:53;;;;;;;2.40;1.15;;;;;;;24.69;46.63;101339.59;5005556;28;20109;-69
2021/09/11 08:44:20;;;;;;;2.20;1.10;;;;;;;24.70;46.73;101340.47;5004639;28;20471;-69
2021/09/11 08:46:48;;;;;;;2.22;1.10;;;;;;;24.72;46.23;101341.13;5003342;28;20481;-69
2021/09/11 08:49:18;;;;;;;1.73;1.15;;;;;;;24.78;45.82;101335.72;5006375;28;20049;-69
2021/09/11 08:51:45;;;;;;;2.58;1.58;;;;;;;24.76;45.96;101335.03;5004170;28;20150;-69
2021/09/11 08:54:18;;;;;;;3.47;1.23;;;;;;;24.79;46.42;101334.63;5001634;28;20583;-70
2021/09/11 08:56:47;;;;;;;1.80;1.20;;;;;;;24.83;46.37;101333.25;5006226;28;20655;-69
2021/09/11 08:59:17;;;;;;;3.00;1.40;;;;;;;24.87;46.26;101336.53;5000432;28;20142;-69
2021/09/11 09:02:00;;;;;;;3.05;1.50;;;;;;;24.89;45.61;101326.94;5002403;28;20137;-70
2021/09/11 09:04:47;;;;;;;3.13;1.52;;;;;;;24.94;45.70;101327.31;5000011;28;20038;-69
2021/09/11 09:07:34;;;;;;;2.35;1.20;;;;;;;24.99;45.77;101326.72;5000632;28;20137;-70
2021/09/11 09:10:04;;;;;;;2.17;1.10;;;;;;;25.06;46.55;101330.50;4986849;28;20100;-69
2021/09/11 09:12:33;;;;;;;2.50;1.35;;;;;;;25.14;46.64;101335.13;5003759;28;20392;-69
2021/09/11 09:15:05;;;;;;;2.80;1.20;;;;;;;25.23;45.88;101332.09;5007127;28;20155;-70
2021/09/11 09:17:41;;;;;;;2.10;1.20;;;;;;;25.31;45.49;101337.59;5004026;28;20111;-70
2021/09/11 09:20:16;;;;;;;1.88;1.10;;;;;;;25.38;45.94;101326.56;5001478;28;20120;-69
2021/09/11 09:22:45;;;;;;;2.70;1.30;;;;;;;25.47;46.17;101330.16;5003759;28;20054;-71
2021/09/11 09:25:39;;;;;;;2.35;1.10;;;;;;;25.55;45.50;101327.28;5006300;28;20049;-70
2021/09/11 09:28:07;;;;;;;5.35;1.30;;;;;;;25.66;46.81;101324.97;4999366;28;20050;-63
2021/09/11 09:30:43;;;;;;;1.98;1.30;;;;;;;25.82;45.95;101329.50;5006899;28;20392;-63
2021/09/11 09:33:20;;;;;;;2.38;1.30;;;;;;;25.94;45.90;101327.97;5005975;28;20456;-64
2021/09/11 09:35:48;;;;;;;3.22;1.33;;;;;;;26.04;46.15;101327.66;5007102;28;20054;-63
2021/09/11 09:38:15;;;;;;;3.10;1.40;;;;;;;26.17;45.88;101335.34;5006264;28;20139;-66
2021/09/11 09:40:47;;;;;;;2.47;1.27;;;;;;;26.30;45.48;101341.13;5006982;28;20038;-64
2021/09/11 09:43:29;;;;;;;2.80;1.50;;;;;;;26.42;44.61;101326.53;5006044;28;20125;-64
2021/09/11 09:46:08;;;;;;;2.05;1.42;;;;;;;26.53;44.37;101337.16;5007168;28;20061;-65
2021/09/11 09:48:37;;;;;;;2.55;1.27;;;;;;;26.63;44.99;101331.28;5005742;28;20555;-64
2021/09/11 09:51:12;;;;;;;3.63;1.35;;;;;;;26.76;43.92;101328.66;5006890;28;20050;-63
2021/09/11 09:53:42;;;;;;;2.85;1.40;;;;;;;26.84;43.98;101334.13;5005763;28;20049;-64
2021/09/11 09:56:09;;;;;;;2.58;1.48;;;;;;;26.91;44.01;101327.78;5006972;28;20054;-64
2021/09/11 09:58:36;;;;;;;2.50;1.33;;;;;;;27.00;44.13;101326.59;5006011;28;20050;-64
2021/09/11 10:01:04;;;;;;;3.10;1.70;;;;;;;27.08;43.92;101327.34;5006574;28;20371;-64
2021/09/11 10:03:31;;;;;;;3.72;1.55;;;;;;;27.15;43.46;101325.47;5006142;28;20058;-64
2021/09/11 10:06:14;;;;;;;2.67;1.60;;;;;;;27.27;42.77;101332.22;5007265;28;20399;-63
2021/09/11 10:08:48;;;;;;;;;;;;;;;27.03;44.26;101331.75;5006126;28;20478;-64
2021/09/11 10:11:15;;;;;;;2.75;1.50;;;;;;;27.36;43.75;101319.00;5006939;28;20294;-64
2021/09/11 10:13:59;;;;;;;2.38;1.30;;;;;;;27.49;42.33;101326.63;5005651;28;20149;-64
2021/09/11 10:16:34;;;;;;;2.47;1.33;;;;;;;27.58;42.30;101331.91;5006022;28;20077;-64
2021/09/11 10:19:23;;;;;;;2.08;1.38;;;;;;;27.63;42.02;101334.06;5005419;28;20049;-64
2021/09/11 10:22:04;;;;;;;3.45;1.40;;;;;;;27.70;42.53;101331.34;5003092;28;20493;-61
2021/09/11 10:24:33;;;;;;;4.05;1.70;;;;;;;27.76;42.39;101333.31;5006940;28;20558;-58
2021/09/11 10:27:19;;;;;;;4.20;1.58;;;;;;;27.83;41.23;101321.16;5006701;28;20050;-60
2021/09/11 10:29:51;;;;;;;2.58;1.45;;;;;;;27.87;40.84;101325.25;4986838;28;20235;-58
2021/09/11 10:32:20;;;;;;;2.13;1.33;;;;;;;27.89;40.94;101327.84;4999297;28;20049;-58
2021/09/11 10:34:53;;;;;;;3.85;1.60;;;;;;;27.95;40.79;101321.44;5007143;28;20534;-58
2021/09/11 10:38:03;;;;;;;3.40;1.60;;;;;;;27.96;40.48;101324.03;5004648;28;20515;-60
2021/09/11 10:40:32;;;;;;;2.95;1.42;;;;;;;27.96;40.70;101324.03;4962615;28;20065;-60
2021/09/11 10:43:29;;;;;;;2.65;1.70;;;;;;;27.89;40.86;101325.91;5005272;28;20062;-57
2021/09/11 10:46:06;;;;;;;2.50;1.58;;;;;;;27.95;39.76;101315.84;4995326;28;20136;-59
2021/09/11 10:48:40;;;;;;;2.40;1.67;;;;;;;27.88;40.29;101320.53;5008650;28;20149;-58
2021/09/11 10:51:12;;;;;;;3.15;1.60;;;;;;;27.87;39.26;101319.66;5010878;28;20121;-56
2021/09/11 10:53:39;;;;;;;2.40;1.42;;;;;;;27.79;40.34;101308.66;5010430;28;20431;-59
2021/09/11 10:56:32;;;;;;;2.47;1.40;;;;;;;27.76;39.51;101319.34;5009250;28;20073;-60
2021/09/11 10:59:19;;;;;;;2.00;1.40;;;;;;;27.67;39.69;101326.19;5014803;28;20133;-55
2021/09/11 11:02:23;;;;;;;2.10;1.48;;;;;;;27.61;39.78;101311.97;5009122;28;20668;-60
2021/09/11 11:04:50;;;;;;;2.17;1.50;;;;;;;27.51;40.27;101316.13;5007723;28;20081;-58
2021/09/11 11:07:22;;;;;;;2.45;1.30;;;;;;;27.51;39.97;101314.19;5008756;28;20128;-59
2021/09/11 11:09:50;;;;;;;3.63;1.83;;;;;;;27.43;40.15;101317.13;4988380;28;20557;-59
2021/09/11 11:12:31;;;;;;;3.28;1.60;;;;;;;27.42;40.13;101317.34;5005510;28;20490;-59
2021/09/11 11:15:00;;;;;;;2.47;1.33;;;;;;;27.37;40.06;101320.72;5010222;28;20137;-60
2021/09/11 11:17:28;;;;;;;2.28;1.42;;;;;;;27.34;40.31;101323.06;5008638;28;20470;-59
2021/09/11 11:19:55;;;;;;;2.30;1.55;;;;;;;27.31;40.30;101324.34;5009992;28;20104;-60
2021/09/11 11:22:30;;;;;;;2.72;1.63;;;;;;;27.29;39.59;101315.28;5008191;28;20128;-61
2021/09/11 11:24:56;;;;;;;3.20;1.65;;;;;;;27.20;39.92;101317.34;5009141;28;20100;-58
2021/09/11 11:27:25;;;;;;;2.50;1.58;;;;;;;27.20;39.87;101322.94;5009337;28;20555;-60
2021/09/11 11:29:54;;;;;;;2.88;1.58;;;;;;;27.15;40.12;101316.25;5009247;28;20109;-59
2021/09/11 11:32:24;;;;;;;3.58;1.88;;;;;;;27.14;39.71;101317.31;5008905;28;20101;-59